Terminal Aerodrome Forecast
Issued by NWS

Home | Current Version | Previous Version | Text Only | Print | Product List | Glossary On
Versions: 1 2 3 4 5 6 7 8 9 10 11 12 13 14 15 16 17 18 19 20 21
000
FTAK31 PAJN 241522 AAA
TAFAYA
TAF AMD
PAYA 241522Z 2415/2512 10007KT 6SM -SHRA BR SCT009 BKN025 OVC040
      TEMPO 2415/2418 2SM -RA BKN006 BKN015 OVC030
     FM242100 15010KT 5SM -RA BR OVC015
     FM250300 14015G22KT 3SM RA BR OVC008
     FM250900 13015G34KT 2SM RA BR SCT005 OVC008
      AMD LTD TO CLD VIS AND WIND=

USA.gov is the U.S. government's official web portal to all federal, state and local government web resources and services.